Time;durP1;ratioP1;P1;durP2;ratioP2;P2;SDS_P1;SDS_P2;PMS_P1;PMS_P2;Temp;Humidity;BMP_temperature;BMP_pressure;BME280_temperature;BME280_humidity;BME280_pressure;Samples;Min_cycle;Max_cycle;Signal;HPM_P1;HPM_P2
2023/04/13 00:00:20;;;;;;;;;0.00;0.00;;;;;22.66;36.33;99684.22;5092590;27;73480;-66
2023/04/13 00:02:52;;;;;;;;;0.00;0.00;;;;;22.67;36.64;99680.56;5062876;27;45593;-66
2023/04/13 00:05:18;;;;;;;;;0.00;0.00;;;;;22.67;37.09;99674.41;5094296;27;45537;-67
2023/04/13 00:07:44;;;;;;;;;0.00;0.00;;;;;22.68;36.57;99674.25;5072685;27;45493;-66
2023/04/13 00:10:10;;;;;;;;;0.25;0.00;;;;;22.68;36.50;99684.06;5076493;27;67177;-67
2023/04/13 00:12:36;;;;;;;;;0.00;0.00;;;;;22.69;37.10;99693.75;5073833;27;45510;-66
2023/04/13 00:15:02;;;;;;;;;0.25;0.00;;;;;22.67;36.78;99680.56;5072462;27;45514;-67
2023/04/13 00:17:28;;;;;;;;;1.00;0.00;;;;;22.69;36.65;99701.75;5068601;27;46372;-66
2023/04/13 00:19:56;;;;;;;;;0.00;0.00;;;;;22.69;36.47;99707.09;5060454;27;45702;-67
2023/04/13 00:22:26;;;;;;;;;0.00;0.00;;;;;22.68;36.84;99692.94;5089315;27;45317;-67
2023/04/13 00:24:56;;;;;;;;;0.00;0.00;;;;;22.71;36.67;99700.63;5061383;27;45649;-67
2023/04/13 00:27:25;;;;;;;;;0.25;0.00;;;;;22.69;36.66;99681.25;5073439;27;46966;-67
2023/04/13 00:29:51;;;;;;;;;0.00;0.00;;;;;22.70;36.89;99684.75;5070407;27;45637;-67
2023/04/13 00:32:16;;;;;;;;;0.00;0.00;;;;;22.68;37.03;99673.41;5045684;27;45306;-67
2023/04/13 00:34:41;;;;;;;;;0.25;0.00;;;;;22.69;36.80;99683.94;5095835;27;73281;-66
2023/04/13 00:37:06;;;;;;;;;1.50;0.00;;;;;22.70;36.92;99695.44;5067729;27;68689;-66
2023/04/13 00:39:32;;;;;;;;;0.00;0.00;;;;;22.73;36.75;99698.69;5074046;27;45238;-66
2023/04/13 00:41:58;;;;;;;;;0.00;0.00;;;;;22.70;36.83;99685.63;5075103;27;45449;-66
2023/04/13 00:44:24;;;;;;;;;0.00;0.00;;;;;22.72;36.75;99696.97;5096258;27;45524;-67
2023/04/13 00:46:49;;;;;;;;;0.00;0.00;;;;;22.73;36.68;99697.81;5070843;27;47338;-66
2023/04/13 00:49:16;;;;;;;;;0.00;0.00;;;;;22.73;36.55;99671.13;5061082;27;45560;-66
2023/04/13 00:51:46;;;;;;;;;0.25;0.00;;;;;22.70;36.62;99690.09;5067832;27;45506;-67
2023/04/13 00:54:13;;;;;;;;;0.50;0.00;;;;;22.73;37.02;99696.00;5067504;27;45549;-67
2023/04/13 00:56:41;;;;;;;;;0.75;0.75;;;;;22.73;36.58;99701.34;5085734;27;46323;-67
2023/04/13 00:59:07;;;;;;;;;0.00;0.00;;;;;22.72;36.28;99688.16;5062233;27;45400;-67
2023/04/13 01:01:32;;;;;;;;;0.00;0.00;;;;;22.74;36.91;99703.00;5094548;27;45525;-67
2023/04/13 01:03:58;;;;;;;;;0.25;0.00;;;;;22.72;36.56;99690.81;5069355;27;65186;-67
2023/04/13 01:06:32;;;;;;;;;0.00;0.00;;;;;22.69;37.00;99689.25;5067828;27;73691;-67
2023/04/13 01:09:27;;;;;;;;;0.25;0.25;;;;;22.75;37.05;99685.16;5074870;27;45529;-67
2023/04/13 01:12:13;;;;;;;;;0.00;0.00;;;;;22.71;36.48;99687.28;5069536;27;45408;-67
2023/04/13 01:15:11;;;;;;;;;0.00;0.00;;;;;22.66;36.86;99689.53;5083864;27;45520;-67
2023/04/13 01:17:38;;;;;;;;;0.00;0.00;;;;;22.73;37.05;99700.47;5075407;27;47616;-67
2023/04/13 01:20:10;;;;;;;;;0.00;0.00;;;;;22.72;36.96;99701.47;5071974;27;45609;-67
2023/04/13 01:22:38;;;;;;;;;0.00;0.00;;;;;22.72;36.80;99694.31;5062373;27;45487;-67
2023/04/13 01:25:29;;;;;;;;;0.00;0.00;;;;;22.71;36.65;99699.78;5082418;27;45525;-67
2023/04/13 01:28:01;;;;;;;;;0.00;0.00;;;;;22.70;36.89;99696.28;5084757;27;47871;-67
2023/04/13 01:30:28;;;;;;;;;0.00;0.00;;;;;22.70;36.86;99706.97;5078523;27;45376;-67
2023/04/13 01:32:54;;;;;;;;;0.50;0.00;;;;;22.72;36.69;99698.81;5059367;27;45312;-67
2023/04/13 01:35:21;;;;;;;;;0.00;0.00;;;;;22.72;36.48;99694.31;5079810;27;45338;-67
2023/04/13 01:37:47;;;;;;;;;0.00;0.00;;;;;22.72;36.62;99702.31;5067127;27;48159;-67
2023/04/13 01:40:13;;;;;;;;;0.25;0.00;;;;;22.70;36.74;99692.75;5073570;27;45285;-67
2023/04/13 01:42:39;;;;;;;;;0.00;0.00;;;;;22.70;36.41;99701.63;5090827;27;45457;-67
2023/04/13 01:45:11;;;;;;;;;0.00;0.00;;;;;22.69;36.75;99713.25;5074181;27;45547;-67
2023/04/13 01:47:38;;;;;;;;;0.00;0.00;;;;;22.73;36.75;99704.00;5092292;27;46551;-67
2023/04/13 01:50:13;;;;;;;;;3.50;0.00;;;;;22.74;36.63;99708.34;5061664;28;45538;-67
2023/04/13 01:52:40;;;;;;;;;0.00;0.00;;;;;22.75;36.80;99715.38;5057485;27;45513;-67
2023/04/13 01:55:06;;;;;;;;;0.00;0.00;;;;;22.75;36.93;99719.84;5075253;27;45468;-66
2023/04/13 01:57:34;;;;;;;;;0.00;0.00;;;;;22.74;36.88;99724.34;5072238;27;45362;-67
2023/04/13 01:59:59;;;;;;;;;0.00;0.00;;;;;22.75;36.88;99720.72;5077603;27;45506;-66
2023/04/13 02:02:25;;;;;;;;;0.00;0.00;;;;;22.76;36.55;99716.19;5079144;27;45706;-66
2023/04/13 02:04:50;;;;;;;;;0.00;0.00;;;;;22.72;36.57;99709.47;5098739;27;45288;-66
2023/04/13 02:07:16;;;;;;;;;0.00;0.00;;;;;22.75;36.59;99702.03;5080826;27;48022;-66
2023/04/13 02:09:41;;;;;;;;;0.00;0.00;;;;;22.76;36.93;99710.88;5069855;27;45234;-66
2023/04/13 02:12:07;;;;;;;;;0.00;0.00;;;;;22.75;37.00;99728.72;5087981;27;61452;-66
2023/04/13 02:14:32;;;;;;;;;1.00;0.00;;;;;22.74;36.90;99719.00;5077539;27;45588;-66
2023/04/13 02:16:57;;;;;;;;;0.50;0.00;;;;;22.75;36.43;99718.03;5090180;27;73678;-66
2023/04/13 02:19:23;;;;;;;;;1.00;0.25;;;;;22.74;36.70;99724.34;5097344;27;45465;-66
2023/04/13 02:21:48;;;;;;;;;0.00;0.00;;;;;22.75;36.93;99736.72;5076772;27;45447;-66
2023/04/13 02:24:15;;;;;;;;;0.00;0.00;;;;;22.75;36.84;99742.03;5079414;27;45225;-66
2023/04/13 02:26:41;;;;;;;;;0.00;0.00;;;;;22.78;37.03;99745.41;5075800;27;47140;-66
2023/04/13 02:29:06;;;;;;;;;0.00;0.00;;;;;22.77;36.95;99741.03;5089033;27;45457;-66
2023/04/13 02:31:32;;;;;;;;;0.25;0.25;;;;;22.74;36.71;99748.34;5070102;27;45582;-67
2023/04/13 02:33:58;;;;;;;;;0.00;0.00;;;;;22.75;36.82;99750.03;5077414;27;45609;-66
2023/04/13 02:36:23;;;;;;;;;0.25;0.00;;;;;22.75;36.43;99742.03;5063875;27;47469;-67
2023/04/13 02:38:49;;;;;;;;;0.25;0.00;;;;;22.75;36.75;99746.50;5078912;27;45529;-66
2023/04/13 02:41:15;;;;;;;;;3.25;0.00;;;;;22.74;36.85;99767.03;5088311;27;45354;-66
2023/04/13 02:43:40;;;;;;;;;1.25;0.00;;;;;22.75;36.81;99771.38;5078398;27;45359;-66
2023/04/13 02:46:06;;;;;;;;;0.25;0.00;;;;;22.74;36.52;99767.03;5075095;27;46522;-66
2023/04/13 02:48:31;;;;;;;;;0.25;0.00;;;;;22.75;36.75;99762.53;5060441;27;45444;-66
2023/04/13 02:50:56;;;;;;;;;1.00;0.00;;;;;22.75;36.53;99759.84;5078581;27;45430;-66
2023/04/13 02:53:23;;;;;;;;;0.00;0.00;;;;;22.73;36.86;99762.69;5076882;27;45794;-67
2023/04/13 02:55:52;;;;;;;;;1.25;0.00;;;;;22.74;36.81;99769.69;5072143;27;46339;-66
2023/04/13 02:58:19;;;;;;;;;0.00;0.00;;;;;22.74;36.47;99771.53;5090200;27;45411;-65
2023/04/13 03:00:44;;;;;;;;;0.00;0.00;;;;;22.74;36.56;99767.03;5062740;27;45725;-67
2023/04/13 03:03:10;;;;;;;;;0.00;0.00;;;;;22.72;36.78;99763.66;5080203;27;45423;-67
2023/04/13 03:05:36;;;;;;;;;0.25;0.00;;;;;22.74;36.91;99766.19;5077968;27;45511;-67
2023/04/13 03:08:01;;;;;;;;;1.50;0.00;;;;;22.73;36.57;99764.50;5095955;27;45427;-67
2023/04/13 03:10:26;;;;;;;;;0.00;0.00;;;;;22.73;36.75;99757.34;5067965;27;45369;-67
2023/04/13 03:12:52;;;;;;;;;0.00;0.00;;;;;22.76;36.74;99758.88;5082656;27;46625;-67
2023/04/13 03:15:18;;;;;;;;;0.00;0.00;;;;;22.75;36.75;99762.53;5078952;27;46068;-67
2023/04/13 03:17:44;;;;;;;;;1.50;0.00;;;;;22.76;36.28;99769.53;5096515;27;45434;-67
2023/04/13 03:20:15;;;;;;;;;0.00;0.00;;;;;22.77;36.60;99762.38;5066379;27;45544;-67
2023/04/13 03:22:42;;;;;;;;;0.00;0.00;;;;;22.76;36.95;99764.22;5075706;27;45348;-66
2023/04/13 03:25:08;;;;;;;;;0.00;0.00;;;;;22.77;36.92;99775.72;5080041;27;45589;-67
2023/04/13 03:27:34;;;;;;;;;0.00;0.00;;;;;22.78;36.89;99788.09;5092969;27;45551;-67
2023/04/13 03:30:00;;;;;;;;;1.00;0.00;;;;;22.78;36.54;99788.91;5072887;27;45463;-67
2023/04/13 03:32:26;;;;;;;;;0.25;0.00;;;;;22.78;36.87;99796.09;5053598;27;45707;-66
2023/04/13 03:34:51;;;;;;;;;0.00;0.00;;;;;22.80;36.42;99791.44;5081501;27;46022;-67
2023/04/13 03:37:17;;;;;;;;;0.00;0.00;;;;;22.79;36.65;99782.59;5062963;27;73719;-66
2023/04/13 03:39:43;;;;;;;;;1.25;0.00;;;;;22.78;36.71;99790.75;5095472;27;51576;-67
2023/04/13 03:42:08;;;;;;;;;0.00;0.00;;;;;22.80;36.53;99799.44;5075057;27;45499;-66
2023/04/13 03:44:33;;;;;;;;;0.00;0.00;;;;;22.75;36.82;99784.72;5079847;27;49988;-66
2023/04/13 03:47:00;;;;;;;;;0.00;0.00;;;;;22.77;36.81;99795.25;5060628;27;58891;-66
2023/04/13 03:49:26;;;;;;;;;0.50;0.00;;;;;22.75;36.70;99798.06;5073285;27;45520;-66
2023/04/13 03:51:51;;;;;;;;;1.00;0.00;;;;;22.77;36.75;99797.06;5070291;28;45539;-66
2023/04/13 03:54:16;;;;;;;;;0.50;0.00;;;;;22.79;36.74;99798.63;5071890;27;45493;-66
2023/04/13 03:56:42;;;;;;;;;1.50;0.00;;;;;22.79;36.49;99808.41;5081565;27;73135;-66
2023/04/13 03:59:07;;;;;;;;;1.25;0.00;;;;;22.80;36.34;99815.44;5078488;27;51320;-66
2023/04/13 04:01:32;;;;;;;;;1.25;0.00;;;;;22.79;36.89;99822.63;5074345;27;52333;-67
2023/04/13 04:03:58;;;;;;;;;0.25;0.00;;;;;22.79;36.51;99819.09;5072149;27;45552;-66
2023/04/13 04:06:23;;;;;;;;;0.00;0.00;;;;;22.80;36.71;99823.44;5062473;27;45278;-67
2023/04/13 04:08:49;;;;;;;;;1.50;0.00;;;;;22.77;36.70;99821.94;5071029;28;45182;-67
2023/04/13 04:11:15;;;;;;;;;0.00;0.00;;;;;22.77;36.73;99813.91;5073144;27;45418;-66
2023/04/13 04:13:41;;;;;;;;;0.00;0.00;;;;;22.78;36.43;99823.59;5073927;27;45632;-66
2023/04/13 04:16:07;;;;;;;;;0.00;0.00;;;;;22.77;36.40;99821.06;5053103;27;45341;-66
2023/04/13 04:18:33;;;;;;;;;0.25;0.00;;;;;22.78;37.00;99820.09;5096411;27;45366;-66
2023/04/13 04:21:01;;;;;;;;;0.00;0.00;;;;;22.78;36.92;99828.09;5058046;27;45423;-66
2023/04/13 04:23:27;;;;;;;;;0.00;0.00;;;;;22.78;37.05;99828.09;5093414;27;45355;-66
2023/04/13 04:25:53;;;;;;;;;0.25;0.25;;;;;22.77;36.62;99827.25;5085556;27;45293;-66
2023/04/13 04:28:18;;;;;;;;;0.25;0.00;;;;;22.77;36.51;99847.72;5074072;27;45744;-66
2023/04/13 04:30:44;;;;;;;;;0.00;0.00;;;;;22.77;36.67;99842.41;5093966;27;61861;-67
2023/04/13 04:33:10;;;;;;;;;1.75;0.00;;;;;22.73;36.59;99837.38;5076454;27;46267;-67
2023/04/13 04:35:42;;;;;;;;;0.00;0.00;;;;;22.78;36.57;99849.44;5090825;27;45676;-67
2023/04/13 04:38:08;;;;;;;;;0.00;0.00;;;;;22.76;36.86;99862.91;5071515;27;45398;-66
2023/04/13 04:40:36;;;;;;;;;0.00;0.00;;;;;22.77;36.80;99850.41;5071396;27;45744;-67
2023/04/13 04:43:03;;;;;;;;;1.00;0.00;;;;;22.77;36.84;99853.06;5074032;27;46212;-67
2023/04/13 04:45:31;;;;;;;;;1.50;0.00;;;;;22.78;36.72;99858.28;5073279;27;45433;-67
2023/04/13 04:47:57;;;;;;;;;0.50;0.00;;;;;22.78;36.63;99868.94;5076676;27;45334;-67
2023/04/13 04:50:23;;;;;;;;;0.00;0.00;;;;;22.74;36.44;99872.88;5076042;27;45387;-67
2023/04/13 04:52:48;;;;;;;;;1.75;0.00;;;;;22.80;36.82;99868.81;5076193;27;46680;-67
2023/04/13 04:55:14;;;;;;;;;0.75;0.00;;;;;22.77;36.63;99864.59;5074874;27;45587;-65
2023/04/13 04:57:39;;;;;;;;;0.00;0.00;;;;;22.80;36.78;99882.97;5083100;27;45284;-65
2023/04/13 05:00:15;;;;;;;;;0.00;0.00;;;;;22.80;36.79;99884.81;5077923;27;45654;-65
2023/04/13 05:02:41;;;;;;;;;0.00;0.00;;;;;22.80;36.55;99882.97;5078915;27;47543;-65
2023/04/13 05:05:07;;;;;;;;;0.50;0.00;;;;;22.78;36.42;99876.94;5076387;27;45541;-64
2023/04/13 05:07:33;;;;;;;;;0.00;0.00;;;;;22.80;36.40;99882.97;5087797;27;45355;-65
2023/04/13 05:09:58;;;;;;;;;1.00;0.00;;;;;22.79;36.71;99883.97;5061620;27;45969;-65
2023/04/13 05:12:24;;;;;;;;;0.00;0.00;;;;;22.82;36.89;99896.19;5062037;27;73207;-65
2023/04/13 05:14:49;;;;;;;;;0.75;0.00;;;;;22.81;36.90;99895.34;5098268;27;45469;-65
2023/04/13 05:17:17;;;;;;;;;0.75;0.00;;;;;22.81;36.81;99900.69;5097564;27;45314;-65
2023/04/13 05:19:44;;;;;;;;;0.75;0.00;;;;;22.80;36.83;99896.31;5080747;27;45562;-65
2023/04/13 05:22:10;;;;;;;;;0.00;0.00;;;;;22.81;36.51;99905.19;5063344;27;48405;-65
2023/04/13 05:24:36;;;;;;;;;0.00;0.00;;;;;22.81;36.43;99915.84;5077361;27;45521;-65
2023/04/13 05:27:01;;;;;;;;;0.00;0.00;;;;;22.80;36.72;99916.81;5101869;27;45409;-65
2023/04/13 05:29:26;;;;;;;;;0.00;0.00;;;;;22.79;36.90;99915.97;5094678;27;45671;-65
2023/04/13 05:31:52;;;;;;;;;0.00;0.00;;;;;22.79;36.63;99924.00;5065335;27;75336;-65
2023/04/13 05:34:17;;;;;;;;;0.00;0.00;;;;;22.80;36.50;99922.16;5093689;27;66115;-65
2023/04/13 05:36:43;;;;;;;;;0.25;0.00;;;;;22.80;36.38;99925.66;5087218;27;45347;-65
2023/04/13 05:39:09;;;;;;;;;0.25;0.25;;;;;22.79;36.38;99923.13;5071849;27;71090;-66
2023/04/13 05:41:35;;;;;;;;;5.00;1.50;;;;;22.79;36.24;99940.00;5078362;27;47540;-71
2023/04/13 05:44:00;;;;;;;;;1.00;1.00;;;;;22.77;36.32;99935.75;5079266;27;45623;-65
2023/04/13 05:46:26;;;;;;;;;3.25;1.00;;;;;22.73;36.41;99938.72;5068995;27;45308;-65
2023/04/13 05:48:52;;;;;;;;;3.25;1.00;;;;;22.67;35.99;99928.59;5069574;27;45800;-66
2023/04/13 05:51:18;;;;;;;;;5.00;2.00;;;;;22.65;35.84;99933.25;5090418;27;45412;-69
2023/04/13 05:53:44;;;;;;;;;1.75;1.25;;;;;22.62;35.95;99925.50;5080267;27;45553;-67
2023/04/13 05:56:09;;;;;;;;;3.75;1.00;;;;;22.60;35.61;99930.16;5071485;27;45206;-69
2023/04/13 05:58:35;;;;;;;;;2.00;0.00;;;;;22.59;35.36;99931.13;5091534;27;45303;-66
2023/04/13 06:01:00;;;;;;;;;2.00;1.00;;;;;22.58;35.99;99939.28;5071712;27;74739;-69
2023/04/13 06:03:28;;;;;;;;;3.75;2.00;;;;;22.58;35.63;99932.13;5077740;27;47151;-68
2023/04/13 06:05:53;;;;;;;;;2.00;1.00;;;;;22.58;35.49;99941.94;5091960;27;45516;-70
2023/04/13 06:08:20;;;;;;;;;0.00;0.00;;;;;22.56;35.64;99934.91;5071382;27;45544;-68
2023/04/13 06:10:46;;;;;;;;;1.25;1.00;;;;;22.61;35.88;99941.66;5074324;27;47809;-69
2023/04/13 06:13:12;;;;;;;;;2.50;0.75;;;;;22.60;36.00;99946.16;5090406;27;45537;-70
2023/04/13 06:15:37;;;;;;;;;4.00;2.00;;;;;22.61;35.49;99949.66;5093323;27;45666;-69
2023/04/13 06:18:03;;;;;;;;;2.00;2.00;;;;;22.61;35.55;99944.31;5094640;27;47025;-69
2023/04/13 06:20:30;;;;;;;;;1.00;0.25;;;;;22.64;35.73;99955.53;5061657;27;46251;-69
2023/04/13 06:22:55;;;;;;;;;3.00;1.75;;;;;22.60;35.56;99948.81;5078736;27;45565;-69
2023/04/13 06:25:21;;;;;;;;;4.00;1.25;;;;;22.62;35.47;99957.50;5094908;27;60478;-70
2023/04/13 06:27:48;;;;;;;;;7.50;3.00;;;;;22.64;35.63;99971.53;5070337;27;45581;-69
2023/04/13 06:30:14;;;;;;;;;3.00;2.75;;;;;22.64;35.51;99962.72;5077811;27;45667;-69
2023/04/13 06:32:39;;;;;;;;;2.25;1.50;;;;;22.63;35.24;99961.00;5055048;27;46298;-67
2023/04/13 06:35:05;;;;;;;;;0.75;0.25;;;;;22.62;35.10;99962.00;5077531;27;45502;-67
2023/04/13 06:37:31;;;;;;;;;0.25;0.25;;;;;22.60;35.32;99972.81;5069675;27;45328;-67
2023/04/13 06:39:56;;;;;;;;;2.00;0.75;;;;;22.60;35.00;99972.81;5076364;27;45501;-67
2023/04/13 06:42:22;;;;;;;;;5.50;1.25;;;;;22.61;35.22;99961.19;5069961;27;45344;-69
2023/04/13 06:44:48;;;;;;;;;6.50;0.75;;;;;22.57;35.47;99957.09;5073343;27;45242;-71
2023/04/13 06:47:13;;;;;;;;;3.00;2.00;;;;;22.62;35.05;99967.34;5088501;27;45274;-67
2023/04/13 06:49:38;;;;;;;;;3.50;0.50;;;;;22.62;35.17;99968.19;5077806;27;69808;-67
2023/04/13 06:52:04;;;;;;;;;5.00;2.00;;;;;22.63;35.53;99961.88;5094899;27;61907;-67
2023/04/13 06:54:29;;;;;;;;;3.00;2.00;;;;;22.64;34.99;99970.72;5058133;27;70723;-68
2023/04/13 06:56:55;;;;;;;;;2.25;1.00;;;;;22.63;35.52;99971.69;5074470;27;45518;-69
2023/04/13 06:59:21;;;;;;;;;2.50;1.25;;;;;22.64;35.54;99966.22;5065113;27;47498;-68
2023/04/13 07:01:46;;;;;;;;;4.50;0.25;;;;;22.66;35.30;99974.09;5077184;27;45698;-69
2023/04/13 07:04:12;;;;;;;;;4.50;2.00;;;;;22.64;35.23;99960.88;5068852;27;45516;-65
2023/04/13 07:06:37;;;;;;;;;5.50;0.25;;;;;22.65;35.24;99957.25;5094696;27;72121;-65
2023/04/13 07:09:03;;;;;;;;;4.00;1.00;;;;;22.66;35.27;99969.59;5092371;27;46121;-66
2023/04/13 07:11:28;;;;;;;;;4.50;1.25;;;;;22.66;35.81;99964.25;5066578;27;45513;-65
2023/04/13 07:13:53;;;;;;;;;5.75;1.25;;;;;22.65;35.52;99959.91;5082029;27;46207;-65
2023/04/13 07:16:19;;;;;;;;;1.75;1.25;;;;;22.65;35.01;99967.91;5069416;28;71967;-67
2023/04/13 07:18:44;;;;;;;;;2.25;2.00;;;;;22.67;35.71;99965.13;5089954;27;46539;-68
2023/04/13 07:21:09;;;;;;;;;2.75;1.00;;;;;22.67;35.55;99970.44;5078255;27;45328;-66
2023/04/13 07:23:35;;;;;;;;;5.00;1.00;;;;;22.66;35.33;99971.41;5070831;27;63818;-67
2023/04/13 07:26:00;;;;;;;;;1.25;1.00;;;;;22.67;35.54;99981.94;5071668;27;45437;-66
2023/04/13 07:28:26;;;;;;;;;1.00;0.25;;;;;22.67;35.23;99976.63;5078271;27;46848;-67
2023/04/13 07:30:52;;;;;;;;;5.50;1.00;;;;;22.68;35.52;99982.78;5055110;27;45327;-65
2023/04/13 07:33:17;;;;;;;;;8.00;1.00;;;;;22.65;35.40;99980.41;5077942;27;63308;-67
2023/04/13 07:35:42;;;;;;;;;4.75;1.00;;;;;22.64;35.40;99984.88;5075551;27;71499;-67
2023/04/13 07:38:07;;;;;;;;;4.50;1.50;;;;;22.66;35.80;99990.09;5072066;27;45350;-66
2023/04/13 07:40:34;;;;;;;;;2.25;0.75;;;;;22.64;35.60;99986.72;5073220;28;69063;-67
2023/04/13 07:43:00;;;;;;;;;3.25;2.00;;;;;22.64;35.38;99997.38;5065815;27;45451;-66
2023/04/13 07:45:29;;;;;;;;;2.00;1.00;;;;;22.63;35.82;99993.03;5060763;28;45710;-67
2023/04/13 07:47:54;;;;;;;;;2.25;1.50;;;;;22.62;35.78;99989.50;5076573;27;47043;-67
2023/04/13 07:50:19;;;;;;;;;3.00;0.25;;;;;22.64;35.45;100002.72;5082287;27;45435;-67
2023/04/13 07:52:45;;;;;;;;;0.75;0.75;;;;;22.59;35.35;99997.78;5072663;27;67179;-67
2023/04/13 07:55:10;;;;;;;;;4.75;1.00;;;;;22.61;35.62;100011.84;5074304;28;45399;-67
2023/04/13 07:57:35;;;;;;;;;2.50;0.50;;;;;22.60;35.26;100011.97;5071074;27;45434;-67
2023/04/13 08:00:05;;;;;;;;;3.00;0.75;;;;;22.60;35.24;100017.31;5080624;27;64217;-67
2023/04/13 08:02:30;;;;;;;;;5.75;0.25;;;;;22.59;35.38;100021.78;5096351;27;45216;-67
2023/04/13 08:04:56;;;;;;;;;3.00;0.25;;;;;22.59;35.53;100020.94;5080159;27;45584;-67
2023/04/13 08:07:21;;;;;;;;;1.50;1.25;;;;;22.61;35.39;100013.66;5075197;27;46504;-67
2023/04/13 08:09:48;;;;;;;;;1.00;0.75;;;;;22.60;35.52;100020.81;5081912;27;45311;-67
2023/04/13 08:12:13;;;;;;;;;2.25;0.75;;;;;22.61;35.48;100016.31;5053236;27;45431;-67
2023/04/13 08:14:39;;;;;;;;;5.25;0.25;;;;;22.60;35.85;100019.97;5080915;27;45415;-67
2023/04/13 08:17:04;;;;;;;;;5.75;2.00;;;;;22.63;35.23;100027.69;5081040;27;46160;-67
2023/04/13 08:19:30;;;;;;;;;3.25;0.25;;;;;22.63;35.55;100030.34;5079359;27;45655;-66
2023/04/13 08:21:57;;;;;;;;;8.25;2.00;;;;;22.63;35.39;100027.69;5093726;27;45543;-66
2023/04/13 08:24:23;;;;;;;;;4.75;1.75;;;;;22.63;35.34;100023.22;5084171;27;45374;-67
2023/04/13 08:26:48;;;;;;;;;0.00;0.00;;;;;22.63;36.04;100025.88;5071926;27;46278;-67
2023/04/13 08:29:14;;;;;;;;;1.25;0.00;;;;;22.62;35.53;100026.84;5082363;27;45381;-67
2023/04/13 08:31:39;;;;;;;;;2.50;1.00;;;;;22.65;35.91;100034.59;5054331;27;45437;-67
2023/04/13 08:34:09;;;;;;;;;2.25;0.25;;;;;22.64;35.56;100034.72;5079784;27;45371;-67
2023/04/13 08:36:34;;;;;;;;;4.25;0.25;;;;;22.59;35.49;100029.78;5099513;27;46489;-67
2023/04/13 08:39:00;;;;;;;;;3.25;0.75;;;;;22.66;35.59;100041.59;5077547;27;45502;-67
2023/04/13 08:41:26;;;;;;;;;1.00;1.00;;;;;22.63;35.70;100033.88;5069537;27;66409;-67
2023/04/13 08:43:51;;;;;;;;;4.50;1.50;;;;;22.66;35.43;100036.25;5077640;28;68959;-67
2023/04/13 08:46:20;;;;;;;;;1.00;1.00;;;;;22.66;35.82;100036.25;5080672;27;47454;-67
2023/04/13 08:48:47;;;;;;;;;2.75;0.25;;;;;22.66;35.52;100040.75;5061600;28;45383;-67
2023/04/13 08:51:13;;;;;;;;;0.25;0.25;;;;;22.66;35.65;100036.25;5059503;28;45321;-68
2023/04/13 08:53:39;;;;;;;;;0.25;0.25;;;;;22.66;35.54;100030.94;5094237;27;45677;-67
2023/04/13 08:56:07;;;;;;;;;1.75;0.50;;;;;22.65;35.76;100036.44;5079748;27;45525;-68
2023/04/13 08:58:34;;;;;;;;;0.00;0.00;;;;;22.65;35.88;100031.09;5076384;27;46181;-68
2023/04/13 09:00:59;;;;;;;;;2.50;0.75;;;;;22.65;35.68;100039.09;5080174;27;45342;-68
2023/04/13 09:03:28;;;;;;;;;2.25;0.00;;;;;22.66;35.29;100043.44;5082410;27;45418;-68
2023/04/13 09:06:02;;;;;;;;;2.25;0.25;;;;;22.66;35.74;100040.75;5075659;27;46543;-68
2023/04/13 09:08:33;;;;;;;;;0.75;0.25;;;;;22.65;35.65;100034.59;5077420;27;45736;-68
2023/04/13 09:10:59;;;;;;;;;3.50;1.00;;;;;22.63;35.44;100039.22;5078149;28;45565;-68
2023/04/13 09:13:24;;;;;;;;;2.25;1.25;;;;;22.63;35.41;100051.69;5053844;27;70751;-68
2023/04/13 09:15:50;;;;;;;;;2.00;0.25;;;;;22.64;35.32;100045.38;5074313;28;48099;-68
2023/04/13 09:18:16;;;;;;;;;2.00;0.75;;;;;22.63;35.11;100054.34;5078594;27;45449;-68
2023/04/13 09:20:41;;;;;;;;;6.00;0.50;;;;;22.61;35.74;100049.19;5095672;27;45403;-68
2023/04/13 09:23:15;;;;;;;;;1.50;1.25;;;;;22.63;35.63;100051.69;5062403;27;45760;-68
2023/04/13 09:25:42;;;;;;;;;4.75;2.00;;;;;22.62;35.34;100055.34;5084398;27;47303;-67
2023/04/13 09:28:17;;;;;;;;;3.25;1.00;;;;;22.56;35.29;100043.41;5070835;27;45928;-68
2023/04/13 09:30:43;;;;;;;;;2.50;1.25;;;;;22.60;35.68;100046.66;5069629;28;45453;-68
2023/04/13 09:33:09;;;;;;;;;3.00;1.00;;;;;22.59;35.36;100040.44;5096752;27;47457;-68
2023/04/13 09:35:35;;;;;;;;;1.75;1.00;;;;;22.58;35.03;100036.13;5081525;27;45630;-68
2023/04/13 09:38:01;;;;;;;;;0.25;0.25;;;;;22.59;35.20;100044.94;5062758;27;45732;-68
2023/04/13 09:40:27;;;;;;;;;2.25;0.25;;;;;22.58;35.23;100049.44;5082297;27;45296;-68
2023/04/13 09:43:00;;;;;;;;;1.75;0.00;;;;;22.61;35.69;100049.19;5082669;27;45425;-68
2023/04/13 09:45:44;;;;;;;;;1.50;0.25;;;;;22.59;35.31;100044.94;5083705;27;45575;-68
2023/04/13 09:48:19;;;;;;;;;0.00;0.00;;;;;22.60;35.17;100044.00;5064985;27;45822;-68
2023/04/13 09:50:44;;;;;;;;;5.00;1.25;;;;;22.60;35.70;100057.31;5076296;27;45516;-68
2023/04/13 09:53:10;;;;;;;;;1.25;1.00;;;;;22.61;35.72;100051.00;5066265;27;45555;-68
2023/04/13 09:55:36;;;;;;;;;1.50;1.50;;;;;22.56;35.27;100038.91;5091796;27;65231;-68
2023/04/13 09:58:13;;;;;;;;;1.00;0.75;;;;;22.63;35.62;100051.69;5100200;27;45458;-68
2023/04/13 10:00:40;;;;;;;;;1.25;1.00;;;;;22.64;35.73;100051.56;5080491;27;45449;-68
2023/04/13 10:03:13;;;;;;;;;3.50;1.00;;;;;22.64;35.22;100048.06;5073673;27;45465;-68
2023/04/13 10:05:40;;;;;;;;;0.75;0.75;;;;;22.60;35.39;100030.66;5061504;27;47046;-68
2023/04/13 10:08:05;;;;;;;;;5.50;1.00;;;;;22.62;35.18;100032.19;5079938;27;45514;-68
2023/04/13 10:10:32;;;;;;;;;6.00;1.25;;;;;22.65;35.77;100031.94;5098063;27;45624;-68
2023/04/13 10:13:02;;;;;;;;;1.75;1.00;;;;;22.66;35.67;100038.94;5056215;27;45372;-68
2023/04/13 10:15:49;;;;;;;;;1.00;1.00;;;;;22.67;35.42;100032.63;5071546;27;45442;-68
2023/04/13 10:18:46;;;;;;;;;2.00;0.50;;;;;22.67;35.67;100043.28;5096975;27;45887;-68
2023/04/13 10:21:11;;;;;;;;;1.75;0.50;;;;;22.67;35.34;100045.97;5075187;27;45376;-68
2023/04/13 10:23:37;;;;;;;;;1.00;1.00;;;;;22.63;35.13;100036.56;5076073;27;45452;-67
2023/04/13 10:26:05;;;;;;;;;0.25;0.00;;;;;22.66;35.47;100043.44;5074861;27;45505;-68
2023/04/13 10:28:41;;;;;;;;;0.25;0.25;;;;;22.66;35.62;100048.75;5075315;27;45430;-68
2023/04/13 10:31:07;;;;;;;;;1.50;1.00;;;;;22.66;35.44;100046.09;5071603;27;45348;-68
2023/04/13 10:33:33;;;;;;;;;0.00;0.00;;;;;22.64;35.38;100038.22;5098289;27;45848;-68
2023/04/13 10:36:00;;;;;;;;;4.25;0.50;;;;;22.64;35.51;100037.38;5080262;27;75445;-68
2023/04/13 10:38:26;;;;;;;;;2.00;0.25;;;;;22.63;35.08;100031.22;5101028;27;45399;-68
2023/04/13 10:40:52;;;;;;;;;0.75;0.75;;;;;22.62;35.23;100040.19;5081138;27;45406;-68
2023/04/13 10:43:30;;;;;;;;;1.75;1.00;;;;;22.65;35.02;100045.25;5061023;27;45443;-68
2023/04/13 10:46:10;;;;;;;;;1.00;1.00;;;;;22.64;34.86;100045.38;5080733;27;45505;-68
2023/04/13 10:48:36;;;;;;;;;4.50;1.00;;;;;22.63;35.13;100047.22;5079605;27;45603;-68
2023/04/13 10:51:01;;;;;;;;;3.75;2.00;;;;;22.62;35.19;100048.19;5063294;28;45443;-68
2023/04/13 10:53:29;;;;;;;;;0.00;0.00;;;;;22.62;35.26;100042.84;5091581;27;45339;-68
2023/04/13 10:55:56;;;;;;;;;4.25;1.00;;;;;22.63;35.32;100051.69;5083215;27;45528;-68
2023/04/13 10:58:21;;;;;;;;;1.00;0.00;;;;;22.60;34.89;100042.16;5065687;27;45556;-68
2023/04/13 11:00:47;;;;;;;;;1.75;0.00;;;;;22.62;35.03;100047.34;5099503;27;45390;-68
2023/04/13 11:03:17;;;;;;;;;2.25;1.25;;;;;22.57;34.83;100042.41;5060373;28;45625;-68
2023/04/13 11:05:43;;;;;;;;;3.50;1.00;;;;;22.59;35.38;100043.13;5080762;27;46504;-68
2023/04/13 11:08:14;;;;;;;;;1.00;0.25;;;;;22.58;35.22;100037.94;5079020;27;45663;-68
2023/04/13 11:10:40;;;;;;;;;2.50;1.00;;;;;22.56;35.37;100049.59;5074154;27;45202;-68
2023/04/13 11:13:05;;;;;;;;;0.00;0.00;;;;;22.56;34.98;100065.59;5095851;27;45370;-68
2023/04/13 11:15:32;;;;;;;;;2.50;2.00;;;;;22.57;35.37;100095.75;5073669;27;45333;-68
2023/04/13 11:17:59;;;;;;;;;0.25;0.00;;;;;22.58;35.10;100096.63;5061076;27;45576;-68
2023/04/13 11:20:34;;;;;;;;;1.25;0.00;;;;;22.58;34.79;100081.44;5098627;27;45366;-67
2023/04/13 11:23:04;;;;;;;;;4.25;0.00;;;;;22.56;35.26;100060.25;5074685;27;45481;-68
2023/04/13 11:25:31;;;;;;;;;0.50;0.25;;;;;22.58;34.70;100049.44;5061594;28;46586;-68
2023/04/13 11:27:58;;;;;;;;;4.50;0.50;;;;;22.55;35.44;100036.38;5070719;27;45321;-68
2023/04/13 11:30:24;;;;;;;;;0.75;0.75;;;;;22.59;35.06;100042.28;5076049;28;45443;-68